Time;durP1;ratioP1;P1;durP2;ratioP2;P2;SDS_P1;SDS_P2;PMS_P1;PMS_P2;Temp;Humidity;BMP_temperature;BMP_pressure;BME280_temperature;BME280_humidity;BME280_pressure;Samples;Min_cycle;Max_cycle;Signal;HPM_P1;HPM_P2
2023/03/09 00:01:29;;;;;;;71.93;45.97;;;27.20;99.90;;;;;;5076541;28;20054;-68
2023/03/09 00:06:51;;;;;;;60.13;40.20;;;27.20;99.90;;;;;;5091457;28;20805;-67
2023/03/09 00:09:18;;;;;;;51.60;24.27;;;27.10;99.90;;;;;;5091116;28;20362;-66
2023/03/09 00:11:47;;;;;;;35.58;20.83;;;27.10;99.90;;;;;;5091089;28;20028;-67
2023/03/09 00:14:15;;;;;;;36.55;20.15;;;27.10;99.90;;;;;;5091040;28;20029;-67
2023/03/09 00:16:42;;;;;;;32.17;18.38;;;27.10;99.90;;;;;;5084437;28;20024;-68
2023/03/09 00:19:09;;;;;;;30.98;16.88;;;27.10;99.90;;;;;;5076991;28;20021;-68
2023/03/09 00:21:40;;;;;;;38.22;20.90;;;27.20;99.90;;;;;;5071332;28;20032;-68
2023/03/09 00:28:43;;;;;;;34.42;21.38;;;27.30;99.90;;;;;;5087759;28;20462;-67
2023/03/09 00:31:10;;;;;;;225.95;168.70;;;27.20;99.90;;;;;;5091876;28;20042;-67
2023/03/09 00:33:36;;;;;;;107.65;70.45;;;27.20;99.90;;;;;;5091263;28;20055;-67
2023/03/09 00:36:03;;;;;;;47.83;23.02;;;27.20;99.90;;;;;;5091458;28;20032;-67
2023/03/09 00:38:29;;;;;;;30.60;20.67;;;27.20;99.90;;;;;;5091194;28;20504;-67
2023/03/09 00:40:56;;;;;;;38.08;17.70;;;27.30;99.90;;;;;;5091663;28;20032;-67
2023/03/09 00:43:22;;;;;;;30.73;16.55;;;27.40;99.90;;;;;;5090753;28;20526;-67
2023/03/09 00:45:49;;;;;;;33.08;17.50;;;27.50;99.90;;;;;;5091158;28;20036;-68
2023/03/09 00:48:15;;;;;;;34.88;16.13;;;27.50;99.90;;;;;;5090545;28;20024;-67
2023/03/09 00:50:42;;;;;;;26.55;15.13;;;27.60;99.90;;;;;;5090414;28;20016;-67
2023/03/09 00:53:08;;;;;;;33.17;15.55;;;27.60;99.90;;;;;;5090476;28;20104;-67
2023/03/09 00:55:35;;;;;;;31.48;15.38;;;27.70;99.90;;;;;;5090452;28;20055;-68
2023/03/09 00:58:02;;;;;;;28.00;15.43;;;27.70;99.90;;;;;;5090228;28;20027;-67
2023/03/09 01:00:29;;;;;;;31.65;15.77;;;27.80;99.90;;;;;;5090361;28;20020;-67
2023/03/09 01:02:56;;;;;;;37.78;15.25;;;27.80;99.90;;;;;;5090210;28;20089;-68
2023/03/09 01:05:22;;;;;;;29.63;15.75;;;27.80;99.90;;;;;;5090030;28;20036;-68
2023/03/09 01:07:49;;;;;;;38.97;16.80;;;27.90;99.90;;;;;;5090057;28;20020;-68
2023/03/09 01:10:16;;;;;;;35.97;18.15;;;27.90;99.90;;;;;;5090285;28;20012;-68
2023/03/09 01:12:42;;;;;;;29.95;14.38;;;27.90;99.90;;;;;;5089917;28;20105;-67
2023/03/09 01:15:10;;;;;;;33.28;15.65;;;28.00;99.90;;;;;;5090121;28;20115;-67
2023/03/09 01:17:37;;;;;;;37.53;15.57;;;28.10;99.90;;;;;;5089955;28;20078;-67
2023/03/09 01:20:04;;;;;;;30.48;15.18;;;28.10;99.90;;;;;;5090635;28;20525;-67
2023/03/09 01:22:31;;;;;;;38.95;17.73;;;28.20;99.90;;;;;;5091090;28;20031;-67
2023/03/09 01:24:58;;;;;;;43.80;18.50;;;28.30;99.90;;;;;;5090527;28;20028;-67
2023/03/09 01:27:25;;;;;;;38.58;18.13;;;28.40;99.90;;;;;;5090227;28;20045;-67
2023/03/09 01:29:51;;;;;;;31.30;15.90;;;28.50;99.90;;;;;;5090477;28;20016;-67
2023/03/09 01:32:18;;;;;;;40.75;15.60;;;28.60;99.90;;;;;;5090509;28;20028;-67
2023/03/09 01:34:45;;;;;;;38.70;15.30;;;28.60;99.90;;;;;;5090229;28;20027;-67
2023/03/09 01:37:11;;;;;;;33.05;14.27;;;28.70;99.90;;;;;;5090584;28;20036;-67
2023/03/09 01:41:26;;;;;;;36.13;12.90;;;28.80;99.90;;;;;;5091977;27;20400;-67
2023/03/09 01:43:53;;;;;;;27.20;12.60;;;28.80;99.90;;;;;;5091470;28;20034;-67
2023/03/09 01:46:25;;;;;;;24.98;11.02;;;28.80;99.90;;;;;;5091179;28;20071;-66
2023/03/09 01:49:12;;;;;;;29.63;12.85;;;28.90;99.90;;;;;;5091689;28;20048;-67
2023/03/09 01:51:56;;;;;;;61.55;36.15;;;28.90;99.90;;;;;;5080103;28;20036;-66
2023/03/09 01:54:40;;;;;;;74.05;44.00;;;28.90;99.90;;;;;;5091360;28;20035;-66
2023/03/09 01:57:32;;;;;;;68.50;39.08;;;28.80;99.90;;;;;;5091214;28;20395;-67
2023/03/09 02:00:14;;;;;;;51.33;35.13;;;28.80;99.90;;;;;;5091003;28;20021;-67
2023/03/09 02:02:43;;;;;;;;;;;28.80;99.90;;;;;;5091844;28;20465;-67
2023/03/09 02:05:22;;;;;;;33.50;17.58;;;28.80;99.90;;;;;;5090734;28;19911;-63
2023/03/09 02:07:50;;;;;;;41.83;22.63;;;28.70;99.90;;;;;;5090506;28;20032;-64
2023/03/09 02:10:20;;;;;;;38.17;23.00;;;28.80;99.90;;;;;;5090251;28;20472;-64
2023/03/09 02:12:52;;;;;;;49.25;27.38;;;28.80;99.90;;;;;;5090006;28;20032;-66
2023/03/09 02:15:20;;;;;;;;;;;28.70;99.90;;;;;;5090623;28;20103;-66
2023/03/09 02:17:47;;;;;;;29.88;16.15;;;28.70;99.90;;;;;;5090159;28;19905;-66
2023/03/09 02:20:24;;;;;;;28.45;14.40;;;28.80;99.90;;;;;;5089968;28;20016;-65
2023/03/09 02:22:51;;;;;;;29.38;14.85;;;28.90;99.90;;;;;;5090242;28;20044;-67
2023/03/09 02:25:33;;;;;;;38.85;23.83;;;29.00;99.90;;;;;;5090112;28;20025;-66
2023/03/09 02:28:00;;;;;;;27.38;14.65;;;29.00;99.90;;;;;;5087046;28;20046;-65
2023/03/09 02:30:29;;;;;;;30.08;15.57;;;29.00;99.90;;;;;;5068668;28;20033;-65
2023/03/09 02:33:26;;;;;;;27.52;14.82;;;29.00;99.90;;;;;;5069143;28;20024;-65
2023/03/09 02:35:55;;;;;;;27.40;10.75;;;29.00;99.90;;;;;;5074825;28;20036;-65
2023/03/09 02:38:22;;;;;;;21.27;10.85;;;29.00;99.90;;;;;;5071602;28;20454;-65
2023/03/09 02:40:50;;;;;;;21.98;11.05;;;29.00;99.90;;;;;;5077282;28;20036;-65
2023/03/09 02:43:20;;;;;;;28.60;14.18;;;29.00;99.90;;;;;;5078750;28;20021;-66
2023/03/09 02:45:48;;;;;;;53.67;34.75;;;29.00;99.90;;;;;;5079942;28;20020;-65
2023/03/09 02:48:15;;;;;;;33.05;18.73;;;29.10;99.90;;;;;;5078674;28;20066;-68
2023/03/09 02:50:43;;;;;;;28.95;14.13;;;29.10;99.90;;;;;;5075331;28;20158;-66
2023/03/09 02:53:10;;;;;;;26.15;14.23;;;29.10;99.90;;;;;;5064115;28;20032;-67
2023/03/09 02:55:37;;;;;;;30.98;14.52;;;29.10;99.90;;;;;;5063925;28;20032;-65
2023/03/09 02:58:04;;;;;;;23.80;12.45;;;29.20;99.90;;;;;;5065243;28;20032;-63
2023/03/09 03:00:30;;;;;;;24.92;13.02;;;29.10;99.90;;;;;;5065846;28;20019;-65
2023/03/09 03:02:57;;;;;;;31.13;16.13;;;29.10;99.90;;;;;;5065245;28;20013;-67
2023/03/09 03:05:24;;;;;;;30.55;16.80;;;29.10;99.90;;;;;;5063424;28;20021;-66
2023/03/09 03:07:51;;;;;;;25.88;11.45;;;29.10;99.90;;;;;;5064417;28;20083;-67
2023/03/09 03:10:18;;;;;;;21.70;11.88;;;29.00;99.90;;;;;;5064954;28;20020;-67
2023/03/09 03:12:44;;;;;;;23.20;11.57;;;29.00;99.90;;;;;;5065671;28;20440;-65
2023/03/09 03:15:11;;;;;;;23.30;12.82;;;29.00;99.90;;;;;;5064353;28;20033;-65
2023/03/09 03:17:38;;;;;;;25.08;12.88;;;29.10;99.90;;;;;;5064838;28;20121;-66
2023/03/09 03:20:11;;;;;;;24.27;11.98;;;29.00;99.90;;;;;;5065909;28;20031;-66
2023/03/09 03:22:38;;;;;;;26.05;10.90;;;29.00;99.90;;;;;;5065102;28;20449;-66
2023/03/09 03:25:06;;;;;;;29.95;17.10;;;29.00;99.90;;;;;;5063445;28;20021;-65
2023/03/09 03:27:32;;;;;;;30.35;16.77;;;29.10;99.90;;;;;;5065015;28;20031;-65
2023/03/09 03:30:00;;;;;;;55.97;37.20;;;29.10;99.90;;;;;;5065045;28;20028;-67
2023/03/09 03:32:27;;;;;;;53.65;34.13;;;29.20;99.90;;;;;;5063526;28;20109;-68
2023/03/09 03:34:53;;;;;;;40.25;23.70;;;29.20;99.90;;;;;;5065886;28;20025;-68
2023/03/09 03:37:20;;;;;;;52.92;35.58;;;29.30;99.90;;;;;;5064649;28;20473;-67
2023/03/09 03:39:47;;;;;;;26.85;13.88;;;29.50;99.90;;;;;;5063374;28;20535;-68
2023/03/09 03:42:13;;;;;;;186.65;135.80;;;29.60;99.90;;;;;;5064652;28;20056;-67
2023/03/09 03:44:40;;;;;;;72.70;49.92;;;29.80;99.90;;;;;;5064878;28;20021;-67
2023/03/09 03:47:07;;;;;;;49.40;35.53;;;30.00;99.90;;;;;;5063240;28;20016;-66
2023/03/09 03:49:33;;;;;;;18.60;10.13;;;30.10;99.90;;;;;;5064491;28;20023;-67
2023/03/09 03:52:00;;;;;;;36.33;23.23;;;30.20;99.90;;;;;;5064903;28;20096;-65
2023/03/09 03:54:26;;;;;;;31.40;20.58;;;30.20;99.90;;;;;;5062969;28;20028;-65
2023/03/09 03:56:53;;;;;;;22.52;9.13;;;30.30;99.90;;;;;;5064547;28;20020;-66
2023/03/09 03:59:19;;;;;;;24.55;11.63;;;30.40;99.90;;;;;;5064471;28;20024;-66
2023/03/09 04:01:46;;;;;;;20.27;10.63;;;30.50;99.90;;;;;;5062869;28;20013;-68
2023/03/09 04:04:13;;;;;;;56.50;37.88;;;30.60;99.90;;;;;;5063401;28;20028;-68
2023/03/09 04:06:39;;;;;;;27.50;19.10;;;30.60;99.90;;;;;;5061313;28;20021;-65
2023/03/09 04:09:06;;;;;;;27.75;10.10;;;30.70;99.90;;;;;;5064064;28;20019;-64
2023/03/09 04:11:32;;;;;;;21.27;10.10;;;30.70;99.90;;;;;;5063152;28;20036;-66
2023/03/09 04:13:59;;;;;;;23.90;12.70;;;30.70;99.90;;;;;;5061449;28;20521;-67
2023/03/09 04:16:25;;;;;;;32.92;20.67;;;30.80;99.90;;;;;;5063839;28;20438;-66
2023/03/09 04:18:52;;;;;;;38.90;24.83;;;30.80;99.90;;;;;;5064406;28;20477;-66
2023/03/09 04:21:18;;;;;;;31.30;12.90;;;30.70;99.90;;;;;;5064183;28;20048;-65
2023/03/09 04:23:47;;;;;;;17.70;8.90;;;30.70;99.90;;;;;;5063493;28;20025;-67
2023/03/09 04:26:14;;;;;;;24.05;9.55;;;30.60;99.90;;;;;;5063365;28;20029;-66
2023/03/09 04:28:40;;;;;;;21.17;9.23;;;30.60;99.90;;;;;;5062764;28;20024;-67
2023/03/09 04:31:07;;;;;;;22.42;9.48;;;30.60;99.90;;;;;;5064503;28;20098;-66
2023/03/09 04:33:33;;;;;;;19.33;8.07;;;30.70;99.90;;;;;;5062452;28;20384;-66
2023/03/09 04:36:00;;;;;;;20.20;8.23;;;30.80;99.90;;;;;;5063373;28;20021;-66
2023/03/09 04:38:26;;;;;;;24.85;13.82;;;30.90;99.90;;;;;;5057137;28;20036;-67
2023/03/09 04:40:53;;;;;;;20.98;9.55;;;31.00;99.90;;;;;;5060997;28;20455;-64
2023/03/09 04:43:19;;;;;;;19.42;8.82;;;31.10;99.90;;;;;;5053811;28;20020;-66
2023/03/09 04:45:46;;;;;;;17.10;7.50;;;31.20;99.90;;;;;;5054052;28;20028;-67
2023/03/09 04:48:12;;;;;;;18.27;7.53;;;31.30;99.90;;;;;;5053930;28;20033;-67
2023/03/09 04:50:39;;;;;;;16.67;6.85;;;31.40;99.90;;;;;;5053732;28;20024;-65
2023/03/09 04:53:05;;;;;;;12.50;5.88;;;31.50;99.90;;;;;;5052468;28;20025;-66
2023/03/09 04:55:33;;;;;;;16.35;7.60;;;31.50;99.90;;;;;;5053280;28;20029;-67
2023/03/09 04:57:59;;;;;;;10.93;6.75;;;31.60;99.90;;;;;;5053452;28;20087;-68
2023/03/09 05:00:26;;;;;;;17.25;6.78;;;31.70;99.90;;;;;;5053842;28;20515;-64
2023/03/09 05:02:53;;;;;;;19.05;7.95;;;31.70;99.90;;;;;;5053697;28;20104;-65
2023/03/09 05:05:19;;;;;;;14.65;7.45;;;31.80;99.90;;;;;;5053677;28;20496;-65
2023/03/09 05:07:46;;;;;;;16.40;7.28;;;31.90;99.90;;;;;;5053808;28;20066;-65
2023/03/09 05:10:13;;;;;;;16.90;7.47;;;32.00;99.90;;;;;;5064111;28;20029;-65
2023/03/09 05:12:39;;;;;;;15.93;6.93;;;32.00;99.90;;;;;;5054205;28;20032;-67
2023/03/09 05:15:07;;;;;;;19.88;9.00;;;32.00;99.90;;;;;;5053689;28;20103;-69
2023/03/09 05:17:34;;;;;;;21.30;9.32;;;31.90;99.90;;;;;;5054086;28;20090;-67
2023/03/09 05:20:00;;;;;;;17.23;9.05;;;31.80;99.90;;;;;;5053700;28;20163;-67
2023/03/09 05:22:27;;;;;;;19.23;8.07;;;31.70;99.90;;;;;;5053398;28;20032;-66
2023/03/09 05:24:53;;;;;;;21.02;8.27;;;31.60;99.90;;;;;;5053608;28;20017;-65
2023/03/09 05:27:20;;;;;;;16.25;7.97;;;31.70;99.90;;;;;;5053539;28;20043;-66
2023/03/09 05:29:50;;;;;;;24.67;7.10;;;31.80;99.90;;;;;;5052364;28;20389;-66
2023/03/09 05:32:17;;;;;;;16.77;6.43;;;31.80;99.90;;;;;;5063562;28;20033;-65
2023/03/09 05:34:45;;;;;;;19.48;7.22;;;31.90;99.90;;;;;;5061552;28;20087;-65
2023/03/09 05:37:12;;;;;;;10.35;6.55;;;32.00;99.90;;;;;;5062361;28;20132;-67
2023/03/09 05:39:39;;;;;;;10.23;6.03;;;32.00;99.90;;;;;;5063141;28;20375;-65
2023/03/09 05:42:06;;;;;;;12.63;6.63;;;32.10;99.90;;;;;;5061450;28;20047;-67
2023/03/09 05:44:33;;;;;;;13.23;5.50;;;32.10;99.90;;;;;;5062102;28;20021;-66
2023/03/09 05:46:59;;;;;;;15.52;5.28;;;32.10;99.90;;;;;;5060614;28;20017;-67
2023/03/09 05:49:30;;;;;;;13.20;5.60;;;32.10;99.90;;;;;;5062904;28;20020;-67
2023/03/09 05:51:59;;;;;;;11.03;6.27;;;32.10;99.90;;;;;;5072707;28;20028;-65
2023/03/09 05:54:26;;;;;;;11.32;5.47;;;32.20;99.90;;;;;;5073584;28;20397;-65
2023/03/09 05:56:56;;;;;;;14.13;7.15;;;32.20;99.90;;;;;;5073062;28;20073;-65
2023/03/09 05:59:23;;;;;;;11.75;6.70;;;32.30;99.90;;;;;;5073141;28;20041;-66
2023/03/09 06:01:50;;;;;;;9.40;5.15;;;32.30;99.90;;;;;;5073166;28;20389;-66
2023/03/09 06:04:16;;;;;;;11.90;5.40;;;32.50;99.90;;;;;;5073082;28;20056;-66
2023/03/09 06:06:43;;;;;;;11.55;5.93;;;32.50;99.90;;;;;;5073101;28;20021;-66
2023/03/09 06:09:10;;;;;;;12.50;5.57;;;32.50;99.90;;;;;;5073252;28;20370;-66
2023/03/09 06:11:37;;;;;;;12.40;5.93;;;32.60;99.90;;;;;;5072944;28;20021;-67
2023/03/09 06:14:03;;;;;;;12.80;5.72;;;32.70;99.90;;;;;;5072970;28;20017;-66
2023/03/09 06:16:30;;;;;;;8.63;5.47;;;32.80;99.90;;;;;;5072652;28;20082;-66
2023/03/09 06:18:56;;;;;;;9.95;5.28;;;32.80;99.90;;;;;;5072506;28;20023;-66
2023/03/09 06:21:23;;;;;;;16.52;6.32;;;32.70;99.90;;;;;;5072360;28;20093;-66
2023/03/09 06:23:52;;;;;;;12.73;6.15;;;32.70;99.90;;;;;;5059877;28;20025;-65
2023/03/09 06:26:18;;;;;;;10.88;4.85;;;32.60;99.90;;;;;;5072662;28;20380;-65
2023/03/09 06:28:47;;;;;;;12.32;5.70;;;32.50;99.90;;;;;;5075866;28;20036;-65
2023/03/09 06:31:15;;;;;;;13.25;6.45;;;32.50;99.90;;;;;;5075910;28;20024;-65
2023/03/09 06:33:43;;;;;;;15.77;7.07;;;32.40;99.90;;;;;;5075814;28;20029;-64
2023/03/09 06:36:12;;;;;;;18.48;8.75;;;32.30;99.90;;;;;;5075955;28;20017;-64
2023/03/09 06:38:38;;;;;;;22.70;8.48;;;32.20;99.90;;;;;;5076951;28;20032;-65
2023/03/09 06:41:05;;;;;;;12.10;7.07;;;32.10;99.90;;;;;;5076809;28;20101;-64
2023/03/09 06:43:32;;;;;;;15.20;7.82;;;31.90;99.90;;;;;;5077286;28;20021;-65
2023/03/09 06:45:59;;;;;;;14.35;7.57;;;31.50;99.90;;;;;;5077339;28;20021;-65
2023/03/09 06:48:26;;;;;;;16.25;7.78;;;31.30;99.90;;;;;;5076989;28;20017;-65
2023/03/09 06:50:53;;;;;;;19.65;9.68;;;31.10;99.90;;;;;;5077312;28;20028;-65
2023/03/09 06:53:19;;;;;;;22.55;9.57;;;31.00;99.90;;;;;;5077229;28;20024;-66
2023/03/09 06:55:46;;;;;;;17.33;9.00;;;31.00;99.90;;;;;;5076261;28;20082;-68
2023/03/09 06:58:13;;;;;;;14.65;7.30;;;31.00;99.90;;;;;;5069657;28;20035;-66
2023/03/09 07:00:40;;;;;;;12.63;7.18;;;31.00;99.90;;;;;;5059981;28;20469;-66
2023/03/09 07:03:13;;;;;;;12.32;6.30;;;31.00;99.90;;;;;;5055409;28;20036;-66
2023/03/09 07:05:39;;;;;;;10.93;7.78;;;31.00;99.90;;;;;;5055898;28;20044;-66
2023/03/09 07:08:06;;;;;;;15.75;9.35;;;30.90;99.90;;;;;;5055528;28;20436;-66
2023/03/09 07:10:32;;;;;;;18.67;12.40;;;30.90;99.90;;;;;;5055376;28;20037;-65
2023/03/09 07:12:59;;;;;;;14.95;9.15;;;30.90;99.90;;;;;;5055554;28;20036;-65
2023/03/09 07:15:25;;;;;;;17.63;8.90;;;30.80;99.90;;;;;;5055609;28;20040;-66
2023/03/09 07:17:52;;;;;;;17.67;10.20;;;30.90;99.90;;;;;;5055570;28;20125;-65
2023/03/09 07:20:18;;;;;;;22.52;12.10;;;30.90;99.90;;;;;;5055811;28;20029;-72
2023/03/09 07:22:45;;;;;;;29.10;14.40;;;30.90;99.90;;;;;;5055886;28;20492;-68
2023/03/09 07:25:11;;;;;;;20.35;9.98;;;30.90;99.90;;;;;;5054672;28;20028;-68
2023/03/09 07:27:38;;;;;;;24.27;10.25;;;31.00;99.90;;;;;;5055331;28;20386;-68
2023/03/09 07:30:05;;;;;;;16.75;9.40;;;31.10;99.90;;;;;;5055428;28;20021;-68
2023/03/09 07:32:32;;;;;;;19.38;9.32;;;31.10;99.90;;;;;;5055074;28;20027;-67
2023/03/09 07:34:58;;;;;;;22.30;11.48;;;31.20;99.90;;;;;;5055165;28;20040;-67
2023/03/09 07:37:25;;;;;;;19.08;8.90;;;31.20;99.90;;;;;;5054994;28;20029;-67
2023/03/09 07:39:51;;;;;;;17.42;6.80;;;31.20;99.90;;;;;;5054846;28;20444;-66
2023/03/09 07:42:18;;;;;;;18.60;8.00;;;30.90;99.90;;;;;;5062751;28;20778;-68
2023/03/09 07:44:44;;;;;;;21.70;7.70;;;30.40;99.90;;;;;;5058848;28;20424;-67
2023/03/09 07:47:11;;;;;;;15.38;7.05;;;29.90;99.90;;;;;;5055564;28;20458;-68
2023/03/09 07:49:37;;;;;;;15.38;6.95;;;29.60;99.90;;;;;;5054437;28;20071;-66
2023/03/09 07:52:04;;;;;;;16.13;8.02;;;29.50;99.90;;;;;;5054857;28;20109;-67
2023/03/09 07:54:30;;;;;;;16.65;7.80;;;29.50;99.90;;;;;;5054826;28;20033;-65
2023/03/09 07:56:57;;;;;;;19.88;8.00;;;29.50;99.90;;;;;;5054563;28;20029;-67
2023/03/09 07:59:23;;;;;;;17.40;7.90;;;29.50;99.90;;;;;;5054574;28;20025;-66
2023/03/09 08:01:50;;;;;;;26.42;8.20;;;29.60;99.90;;;;;;5054622;28;20032;-64
2023/03/09 08:04:17;;;;;;;18.42;8.00;;;29.60;99.90;;;;;;5054481;28;20055;-64
2023/03/09 08:06:44;;;;;;;20.48;9.68;;;29.60;99.90;;;;;;5054623;28;20025;-64
2023/03/09 08:09:15;;;;;;;25.17;9.55;;;29.70;99.90;;;;;;5055217;28;20025;-66
2023/03/09 08:11:45;;;;;;;35.00;12.63;;;29.70;99.90;;;;;;5054931;28;20495;-65
2023/03/09 08:14:12;;;;;;;20.98;10.02;;;29.80;99.90;;;;;;5055831;28;20066;-66
2023/03/09 08:16:39;;;;;;;62.10;35.28;;;29.50;99.90;;;;;;5055551;28;20021;-64
2023/03/09 08:19:05;;;;;;;38.38;22.33;;;29.20;99.90;;;;;;5055205;28;20019;-66
2023/03/09 08:21:32;;;;;;;20.30;9.50;;;28.90;99.90;;;;;;5055142;28;20013;-65
2023/03/09 08:23:59;;;;;;;17.55;7.90;;;28.70;99.90;;;;;;5074875;28;20020;-66
2023/03/09 08:26:26;;;;;;;20.02;7.97;;;28.40;99.90;;;;;;5068173;28;20474;-64
2023/03/09 08:28:52;;;;;;;27.27;10.30;;;28.30;99.90;;;;;;5057523;28;20362;-66
2023/03/09 08:31:19;;;;;;;15.18;6.75;;;28.50;99.90;;;;;;5054560;28;20078;-66
2023/03/09 08:33:46;;;;;;;15.00;7.63;;;28.50;99.90;;;;;;5054412;28;20029;-65
2023/03/09 08:36:20;;;;;;;10.52;6.60;;;28.60;99.90;;;;;;5054498;28;20485;-65
2023/03/09 08:38:48;;;;;;;14.75;6.38;;;28.70;99.90;;;;;;5054444;28;20028;-65
2023/03/09 08:41:16;;;;;;;22.67;7.63;;;28.70;99.90;;;;;;5054188;28;20076;-68
2023/03/09 08:43:42;;;;;;;8.02;5.35;;;28.70;99.90;;;;;;5054145;28;20025;-65
2023/03/09 08:46:09;;;;;;;7.93;4.95;;;28.70;99.90;;;;;;5054272;28;20056;-65
2023/03/09 08:48:36;;;;;;;10.02;5.32;;;28.80;99.90;;;;;;5053399;28;20099;-64
2023/03/09 08:51:05;;;;;;;8.25;4.43;;;28.80;99.90;;;;;;5054511;28;20063;-65
2023/03/09 08:53:33;;;;;;;7.47;4.70;;;28.80;99.90;;;;;;5054736;28;20032;-66
2023/03/09 08:56:04;;;;;;;9.30;5.57;;;28.90;99.90;;;;;;5056993;28;20477;-66
2023/03/09 08:58:30;;;;;;;13.63;7.63;;;28.90;99.90;;;;;;5063510;28;20029;-65
2023/03/09 09:00:57;;;;;;;13.02;6.10;;;29.00;99.90;;;;;;5054732;28;20036;-65
2023/03/09 09:03:24;;;;;;;7.82;5.63;;;29.10;99.90;;;;;;5054791;28;20021;-65
2023/03/09 09:05:50;;;;;;;9.18;4.78;;;29.00;99.90;;;;;;5054428;28;20024;-64
2023/03/09 09:08:17;;;;;;;10.00;4.72;;;29.00;99.90;;;;;;5054361;28;20020;-63
2023/03/09 09:10:45;;;;;;;8.10;4.50;;;29.10;99.90;;;;;;5053637;28;20580;-65
2023/03/09 09:13:12;;;;;;;9.20;4.95;;;29.10;99.90;;;;;;5053593;28;20040;-65
2023/03/09 09:15:41;;;;;;;8.50;4.63;;;29.10;99.90;;;;;;5054939;28;20033;-65
2023/03/09 09:18:07;;;;;;;8.00;4.53;;;29.10;99.90;;;;;;5069352;28;20028;-66
2023/03/09 09:20:34;;;;;;;8.15;5.15;;;29.00;99.90;;;;;;5073854;28;20027;-66
2023/03/09 09:23:00;;;;;;;6.53;4.47;;;28.90;99.90;;;;;;5073482;28;20020;-65
2023/03/09 09:25:27;;;;;;;10.63;5.80;;;29.00;99.90;;;;;;5073856;28;20029;-69
2023/03/09 09:27:54;;;;;;;14.80;5.75;;;29.00;99.90;;;;;;5070070;28;20020;-65
2023/03/09 09:30:20;;;;;;;12.80;5.68;;;29.10;99.90;;;;;;5062566;28;20048;-67
2023/03/09 09:32:48;;;;;;;12.75;6.30;;;29.10;99.90;;;;;;5063382;28;20083;-65
2023/03/09 09:35:14;;;;;;;11.13;6.22;;;29.10;99.90;;;;;;5064325;28;20025;-66
2023/03/09 09:37:41;;;;;;;10.57;6.32;;;29.20;99.90;;;;;;5062495;28;20075;-65
2023/03/09 09:40:13;;;;;;;14.15;7.28;;;29.20;99.90;;;;;;5062157;28;20389;-66
2023/03/09 09:42:44;;;;;;;12.80;7.45;;;29.30;99.90;;;;;;5063739;28;20043;-65
2023/03/09 09:45:35;;;;;;;14.43;7.05;;;29.30;99.90;;;;;;5063504;28;20032;-69
2023/03/09 09:48:05;;;;;;;12.23;7.10;;;29.30;99.90;;;;;;5057723;28;20086;-65
2023/03/09 09:51:01;;;;;;;18.35;8.98;;;29.30;99.90;;;;;;5053292;28;20445;-64
2023/03/09 09:53:59;;;;;;;19.23;10.23;;;29.30;99.90;;;;;;5053241;28;20025;-64
2023/03/09 09:56:36;;;;;;;17.90;11.02;;;29.30;99.90;;;;;;5061247;28;20477;-65
2023/03/09 09:59:06;;;;;;;17.80;9.10;;;29.40;99.90;;;;;;5052871;28;20036;-63
2023/03/09 10:02:06;;;;;;;19.80;9.25;;;29.30;99.90;;;;;;5054191;28;20021;-65
2023/03/09 10:04:41;;;;;;;17.45;9.02;;;29.30;99.90;;;;;;5066057;28;20040;-64
2023/03/09 10:07:19;;;;;;;24.05;10.70;;;29.30;99.90;;;;;;5057706;28;20444;-64
2023/03/09 10:10:01;;;;;;;13.98;7.65;;;29.30;99.90;;;;;;5057062;28;20087;-66
2023/03/09 10:12:28;;;;;;;11.65;6.82;;;29.30;99.90;;;;;;5061695;28;20032;-66
2023/03/09 10:15:11;;;;;;;13.30;6.93;;;29.20;99.90;;;;;;5076032;28;20472;-66
2023/03/09 10:18:06;;;;;;;10.52;5.90;;;29.10;99.90;;;;;;5076944;28;20383;-65
2023/03/09 10:20:42;;;;;;;13.60;6.20;;;29.20;99.90;;;;;;5064723;28;20285;-65
2023/03/09 10:23:31;;;;;;;13.63;6.28;;;29.20;99.90;;;;;;5065677;28;20100;-66
2023/03/09 10:26:04;;;;;;;12.05;5.78;;;29.10;99.90;;;;;;5066622;28;20111;-66
2023/03/09 10:28:36;;;;;;;16.30;6.25;;;29.10;99.90;;;;;;5065829;28;20381;-66
2023/03/09 10:31:14;;;;;;;16.58;7.07;;;29.10;99.90;;;;;;5064619;28;20357;-65
2023/03/09 10:34:03;;;;;;;16.23;6.90;;;29.10;99.90;;;;;;5064201;28;20021;-64
2023/03/09 10:36:31;;;;;;;17.00;8.00;;;29.10;99.90;;;;;;5065728;28;20049;-64
2023/03/09 10:39:16;;;;;;;21.25;9.55;;;29.10;99.90;;;;;;5063561;28;20027;-66
2023/03/09 10:41:43;;;;;;;20.45;10.05;;;29.20;99.90;;;;;;5063386;28;20098;-63
2023/03/09 10:44:15;;;;;;;22.38;9.45;;;29.10;99.90;;;;;;5065647;28;20021;-64
2023/03/09 10:46:55;;;;;;;18.88;8.73;;;29.10;99.90;;;;;;5064281;28;20033;-65
2023/03/09 10:49:22;;;;;;;16.20;8.48;;;29.10;99.90;;;;;;5064347;28;20204;-65
2023/03/09 10:52:00;;;;;;;16.92;8.30;;;29.10;99.90;;;;;;5065203;28;20021;-65
2023/03/09 10:54:37;;;;;;;17.83;8.52;;;29.10;99.90;;;;;;5061247;28;20108;-65
2023/03/09 10:57:31;;;;;;;18.58;8.68;;;29.10;99.90;;;;;;5064906;28;20469;-65
2023/03/09 11:00:25;;;;;;;17.63;7.88;;;29.20;99.90;;;;;;5064007;28;20043;-66
2023/03/09 11:02:55;;;;;;;19.02;10.27;;;29.20;99.90;;;;;;5065064;28;20033;-65
2023/03/09 11:05:28;;;;;;;27.33;17.23;;;29.20;99.90;;;;;;5066996;28;20074;-65
2023/03/09 11:08:02;;;;;;;19.67;11.52;;;29.10;99.90;;;;;;5066600;28;20175;-66
2023/03/09 11:10:32;;;;;;;29.60;11.60;;;29.10;99.90;;;;;;5063887;28;20115;-67
2023/03/09 11:13:00;;;;;;;25.00;13.18;;;29.10;99.90;;;;;;5065156;28;20116;-66
2023/03/09 11:15:40;;;;;;;21.38;11.25;;;29.10;99.90;;;;;;5061270;28;20072;-65
2023/03/09 11:18:28;;;;;;;20.98;11.18;;;29.10;99.90;;;;;;5066415;28;20028;-66
2023/03/09 11:20:55;;;;;;;42.75;23.50;;;29.10;99.90;;;;;;5067017;28;20033;-65
2023/03/09 11:23:44;;;;;;;138.85;91.22;;;29.10;99.90;;;;;;5066555;28;20470;-66
2023/03/09 11:26:34;;;;;;;71.93;49.67;;;29.20;99.90;;;;;;5061486;28;20051;-66
2023/03/09 11:29:24;;;;;;;70.65;47.00;;;29.20;99.90;;;;;;5065990;28;20037;-63
2023/03/09 11:31:50;;;;;;;27.58;14.27;;;29.10;99.90;;;;;;5063275;28;20016;-66
2023/03/09 11:34:39;;;;;;;25.23;12.27;;;29.10;99.90;;;;;;5064888;28;20067;-66
2023/03/09 11:37:17;;;;;;;20.15;11.70;;;29.10;99.90;;;;;;5061228;28;20492;-66
2023/03/09 11:39:59;;;;;;;27.13;11.77;;;29.10;99.90;;;;;;5062233;28;20088;-64
2023/03/09 11:42:50;;;;;;;23.27;12.45;;;29.10;99.90;;;;;;5060805;28;20398;-67
2023/03/09 11:45:21;;;;;;;26.50;12.18;;;29.10;99.90;;;;;;5063992;28;20496;-67
2023/03/09 11:47:56;;;;;;;36.13;11.82;;;29.10;99.90;;;;;;5066243;28;20020;-67
2023/03/09 11:50:45;;;;;;;83.38;55.50;;;29.10;99.90;;;;;;5061026;28;20040;-66
2023/03/09 11:53:29;;;;;;;90.65;60.35;;;29.00;99.90;;;;;;5065492;28;20040;-66
2023/03/09 11:56:20;;;;;;;49.38;30.73;;;29.00;99.90;;;;;;5064290;28;20107;-67
2023/03/09 11:58:54;;;;;;;49.57;28.70;;;29.00;99.90;;;;;;5063872;28;20044;-66
2023/03/09 12:01:29;;;;;;;41.92;22.10;;;29.00;99.90;;;;;;5062992;28;20274;-69
2023/03/09 12:04:16;;;;;;;79.25;51.95;;;29.10;99.90;;;;;;5063273;28;20148;-69
2023/03/09 12:07:16;;;;;;;42.00;25.38;;;29.10;99.90;;;;;;5064150;28;20024;-70
2023/03/09 12:10:04;;;;;;;37.45;18.55;;;28.90;99.90;;;;;;5064593;28;20459;-68
2023/03/09 12:12:56;;;;;;;38.53;23.13;;;28.90;99.90;;;;;;5065222;28;20381;-67
2023/03/09 12:15:37;;;;;;;39.95;17.85;;;28.90;99.90;;;;;;5061955;28;20039;-67
2023/03/09 12:23:46;;;;;;;30.17;17.05;;;28.70;99.90;;;;;;5111005;27;20441;-68
2023/03/09 12:26:12;;;;;;;84.45;57.22;;;28.60;99.90;;;;;;5089721;28;20281;-68
2023/03/09 12:28:39;;;;;;;56.55;34.88;;;28.50;99.90;;;;;;5090315;28;20026;-68
2023/03/09 12:31:29;;;;;;;87.50;60.00;;;28.60;99.90;;;;;;5090598;28;20062;-68
2023/03/09 12:33:58;;;;;;;52.20;34.42;;;28.70;99.90;;;;;;5089347;28;20055;-68
2023/03/09 12:36:30;;;;;;;50.90;27.85;;;28.70;99.90;;;;;;5090762;28;20033;-67
2023/03/09 12:39:25;;;;;;;32.05;16.90;;;28.80;99.90;;;;;;5090702;28;20534;-67
2023/03/09 12:42:02;;;;;;;31.85;15.00;;;28.80;99.90;;;;;;5091234;28;20066;-66
2023/03/09 12:44:43;;;;;;;26.98;13.57;;;28.80;99.90;;;;;;5084600;28;20087;-67
2023/03/09 12:47:31;;;;;;;26.73;14.15;;;28.80;99.90;;;;;;5096012;22;20052;-67
2023/03/09 12:49:59;;;;;;;25.65;14.57;;;28.70;99.90;;;;;;5071143;28;20206;-68
2023/03/09 12:52:46;;;;;;;27.35;13.90;;;28.70;99.90;;;;;;5070570;28;20029;-68
2023/03/09 12:55:24;;;;;;;24.88;12.98;;;28.80;99.90;;;;;;5070180;28;20100;-68
2023/03/09 12:58:11;;;;;;;28.58;12.35;;;28.80;99.90;;;;;;5065764;28;20031;-68
2023/03/09 13:00:56;;;;;;;34.35;12.82;;;28.70;99.90;;;;;;5070236;28;20017;-69
2023/03/09 13:03:34;;;;;;;27.70;13.70;;;28.70;99.90;;;;;;5069920;28;20113;-68
2023/03/09 13:06:22;;;;;;;25.02;13.10;;;28.70;99.90;;;;;;5069321;28;20028;-70